Time;durP1;ratioP1;P1;durP2;ratioP2;P2;SDS_P1;SDS_P2;PMS_P1;PMS_P2;Temp;Humidity;BMP_temperature;BMP_pressure;BME280_temperature;BME280_humidity;BME280_pressure;Samples;Min_cycle;Max_cycle;Signal;HPM_P1;HPM_P2
2021/03/16 00:02:25;;;;;;;2.10;1.20;;;6.80;70.20;;;;;;6246393;23;20020;-78
2021/03/16 00:04:50;;;;;;;3.67;1.70;;;6.90;70.20;;;;;;6219331;23;20301;-77
2021/03/16 00:07:18;;;;;;;2.50;1.23;;;6.90;70.30;;;;;;6219819;23;20004;-77
2021/03/16 00:09:43;;;;;;;4.93;1.80;;;7.00;70.70;;;;;;6245824;23;20000;-77
2021/03/16 00:12:09;;;;;;;7.43;1.90;;;6.90;70.60;;;;;;6219492;23;20058;-78
2021/03/16 00:14:35;;;;;;;2.40;1.67;;;6.90;69.80;;;;;;6219403;23;20432;-77
2021/03/16 00:17:01;;;;;;;5.10;1.60;;;6.80;70.50;;;;;;6218291;23;20016;-77
2021/03/16 00:19:27;;;;;;;6.43;1.43;;;6.80;71.10;;;;;;6218845;23;20019;-77
2021/03/16 00:21:52;;;;;;;7.60;1.80;;;6.90;71.40;;;;;;6218831;23;20087;-76
2021/03/16 00:24:18;;;;;;;3.57;1.53;;;6.80;71.50;;;;;;6219275;23;20004;-77
2021/03/16 00:26:43;;;;;;;4.23;1.40;;;6.70;72.10;;;;;;6219073;23;20008;-77
2021/03/16 00:29:09;;;;;;;5.90;1.70;;;6.80;72.10;;;;;;6217252;23;20094;-76
2021/03/16 00:31:35;;;;;;;5.83;1.90;;;6.80;72.40;;;;;;6220097;23;20386;-78
2021/03/16 00:34:00;;;;;;;4.10;1.73;;;6.80;72.40;;;;;;6218816;23;20001;-77
2021/03/16 00:36:27;;;;;;;5.70;1.67;;;6.80;72.40;;;;;;6214143;23;20380;-77
2021/03/16 00:38:52;;;;;;;7.90;1.97;;;6.80;72.50;;;;;;6215378;23;20005;-77
2021/03/16 00:41:18;;;;;;;6.80;2.67;;;6.80;72.70;;;;;;6215955;23;20439;-77
2021/03/16 00:43:44;;;;;;;11.90;2.87;;;6.70;72.60;;;;;;6215798;23;20004;-78
2021/03/16 00:46:11;;;;;;;14.70;2.60;;;6.70;72.50;;;;;;6218169;23;20070;-77
2021/03/16 00:48:37;;;;;;;8.20;2.00;;;6.70;72.40;;;;;;6215731;23;20424;-79
2021/03/16 00:51:03;;;;;;;4.20;1.90;;;6.70;72.40;;;;;;6215746;23;20007;-77
2021/03/16 00:53:29;;;;;;;4.83;1.60;;;6.70;72.40;;;;;;6215625;23;20502;-77
2021/03/16 00:55:54;;;;;;;2.87;1.50;;;6.70;72.30;;;;;;6215296;23;20015;-77
2021/03/16 00:58:29;;;;;;;6.63;1.57;;;6.70;72.40;;;;;;6216890;23;19996;-77
2021/03/16 01:00:56;;;;;;;5.40;1.90;;;6.70;72.40;;;;;;6215232;23;20395;-77
2021/03/16 01:03:23;;;;;;;3.97;1.57;;;6.70;72.30;;;;;;6215996;23;20054;-77
2021/03/16 01:05:50;;;;;;;5.07;1.53;;;6.70;72.30;;;;;;6216310;23;19993;-77
2021/03/16 01:08:17;;;;;;;5.03;1.53;;;6.70;71.80;;;;;;6216099;23;20062;-77
2021/03/16 01:10:43;;;;;;;4.43;1.70;;;6.70;71.70;;;;;;6214964;23;20004;-77
2021/03/16 01:13:10;;;;;;;5.80;1.70;;;6.70;71.90;;;;;;6215912;23;20083;-77
2021/03/16 01:15:36;;;;;;;3.93;1.50;;;6.70;72.00;;;;;;6215665;23;20004;-78
2021/03/16 01:18:01;;;;;;;5.37;1.93;;;6.60;72.20;;;;;;6217289;23;20008;-77
2021/03/16 01:20:27;;;;;;;4.73;1.70;;;6.60;72.20;;;;;;6217355;23;20009;-76
2021/03/16 01:22:54;;;;;;;4.93;1.40;;;6.60;72.20;;;;;;6215335;23;20008;-78
2021/03/16 01:25:20;;;;;;;5.23;1.80;;;6.50;72.00;;;;;;6217022;23;20000;-77
2021/03/16 01:27:46;;;;;;;6.00;1.37;;;6.40;73.60;;;;;;6214814;23;20000;-78
2021/03/16 01:30:12;;;;;;;5.33;1.40;;;6.40;74.20;;;;;;6215283;23;20004;-77
2021/03/16 01:32:38;;;;;;;3.83;1.47;;;6.40;74.30;;;;;;6214891;23;20005;-77
2021/03/16 01:35:12;;;;;;;3.13;1.67;;;6.30;74.60;;;;;;6217071;23;20001;-78
2021/03/16 01:37:42;;;;;;;5.73;1.60;;;6.30;75.10;;;;;;6190336;23;20017;-78
2021/03/16 01:40:10;;;;;;;3.53;1.67;;;6.30;75.10;;;;;;6190702;23;20028;-78
2021/03/16 01:42:36;;;;;;;3.30;1.33;;;6.40;75.20;;;;;;6190713;23;20001;-76
2021/03/16 01:45:07;;;;;;;4.57;1.50;;;6.40;74.60;;;;;;6189720;23;20305;-77
2021/03/16 01:47:33;;;;;;;7.55;2.00;;;6.40;74.90;;;;;;6217258;23;20009;-76
2021/03/16 01:50:02;;;;;;;7.90;1.60;;;6.40;74.60;;;;;;6189076;23;20009;-77
2021/03/16 01:52:27;;;;;;;2.60;1.20;;;6.40;74.70;;;;;;6216699;23;20062;-77
2021/03/16 01:54:54;;;;;;;7.13;1.73;;;6.40;74.20;;;;;;6216629;23;20491;-77
2021/03/16 01:57:20;;;;;;;5.40;1.23;;;6.40;73.90;;;;;;6190092;23;20395;-77
2021/03/16 01:59:46;;;;;;;6.33;1.43;;;6.40;74.20;;;;;;6189663;23;19997;-77
2021/03/16 02:02:12;;;;;;;5.17;1.57;;;6.40;74.00;;;;;;6190261;23;20024;-77
2021/03/16 02:04:37;;;;;;;2.87;1.37;;;6.30;74.00;;;;;;6216092;23;20420;-79
2021/03/16 02:07:13;;;;;;;4.50;1.50;;;6.30;73.50;;;;;;6190318;23;20032;-77
2021/03/16 02:10:00;;;;;;;3.23;0.90;;;6.30;73.30;;;;;;6189552;23;20007;-77
2021/03/16 02:12:37;;;;;;;4.20;1.13;;;6.30;72.80;;;;;;6216592;23;19996;-77
2021/03/16 02:15:20;;;;;;;5.83;1.10;;;6.30;72.20;;;;;;6216126;23;20028;-77
2021/03/16 02:17:52;;;;;;;4.27;1.00;;;6.30;72.10;;;;;;6189625;23;20016;-78
2021/03/16 02:20:33;;;;;;;3.37;0.90;;;6.30;71.90;;;;;;6190836;23;20086;-77
2021/03/16 02:23:02;;;;;;;6.13;1.10;;;6.30;71.90;;;;;;6189244;23;19996;-77
2021/03/16 02:25:36;;;;;;;3.73;0.73;;;6.20;71.90;;;;;;6216141;23;20001;-76
2021/03/16 02:28:29;;;;;;;3.67;1.10;;;6.20;71.60;;;;;;6189373;23;20008;-76
2021/03/16 02:30:57;;;;;;;4.10;1.03;;;6.30;71.10;;;;;;6189787;23;20001;-77
2021/03/16 02:33:25;;;;;;;4.33;1.20;;;6.30;70.90;;;;;;6189605;23;19996;-77
2021/03/16 02:35:52;;;;;;;3.53;0.80;;;6.30;70.60;;;;;;6192382;23;20439;-76
2021/03/16 02:38:21;;;;;;;3.80;1.07;;;6.30;70.70;;;;;;6215148;23;20088;-76
2021/03/16 02:40:50;;;;;;;2.67;1.00;;;6.40;70.90;;;;;;6214470;23;20000;-76
2021/03/16 02:43:16;;;;;;;6.20;1.17;;;6.30;70.90;;;;;;6214708;23;20003;-77
2021/03/16 02:45:42;;;;;;;3.97;1.23;;;6.30;71.10;;;;;;6214012;23;20505;-77
2021/03/16 02:48:08;;;;;;;4.27;1.27;;;6.30;71.00;;;;;;6217156;23;20036;-77
2021/03/16 02:50:35;;;;;;;4.13;0.77;;;6.30;71.00;;;;;;6216710;23;20024;-77
2021/03/16 02:53:02;;;;;;;4.33;0.73;;;6.30;70.90;;;;;;6214507;23;20005;-77
2021/03/16 02:55:29;;;;;;;3.63;0.90;;;6.30;70.70;;;;;;6216813;23;20035;-77
2021/03/16 02:57:57;;;;;;;5.27;0.80;;;6.30;70.60;;;;;;6215792;23;20020;-77
2021/03/16 03:00:24;;;;;;;3.80;1.17;;;6.40;70.20;;;;;;6214968;23;20004;-76
2021/03/16 03:02:51;;;;;;;3.63;0.90;;;6.30;70.80;;;;;;6215552;23;20072;-76
2021/03/16 03:05:18;;;;;;;2.10;0.87;;;6.30;70.50;;;;;;6214906;23;20008;-77
2021/03/16 03:07:44;;;;;;;5.83;1.10;;;6.30;70.40;;;;;;6215914;23;20001;-76
2021/03/16 03:10:11;;;;;;;4.27;1.20;;;6.30;70.40;;;;;;6215203;23;20004;-77
2021/03/16 03:12:37;;;;;;;4.77;1.00;;;6.40;70.30;;;;;;6216525;23;19996;-76
2021/03/16 03:15:08;;;;;;;4.00;0.87;;;6.30;70.30;;;;;;6216337;23;20486;-77
2021/03/16 03:17:34;;;;;;;4.60;1.10;;;6.30;69.60;;;;;;6216360;23;20004;-77
2021/03/16 03:19:59;;;;;;;4.67;1.10;;;6.40;70.00;;;;;;6214717;23;20004;-77
2021/03/16 03:22:47;;;;;;;3.00;0.90;;;6.40;69.50;;;;;;6214545;23;20447;-77
2021/03/16 03:25:36;;;;;;;4.07;1.00;;;6.30;69.20;;;;;;6214574;23;19996;-75
2021/03/16 03:28:09;;;;;;;2.47;0.87;;;6.40;69.30;;;;;;6215243;23;20444;-75
2021/03/16 03:30:36;;;;;;;4.40;1.03;;;6.40;69.30;;;;;;6214806;23;20000;-75
2021/03/16 03:33:05;;;;;;;4.47;1.20;;;6.20;69.70;;;;;;6215605;23;19996;-75
2021/03/16 03:35:33;;;;;;;2.93;0.83;;;6.30;69.90;;;;;;6218575;23;20031;-75
2021/03/16 03:38:01;;;;;;;7.33;1.23;;;6.30;70.10;;;;;;6219268;23;20009;-75
2021/03/16 03:40:27;;;;;;;4.70;0.87;;;6.30;70.10;;;;;;6220603;23;19997;-75
2021/03/16 03:43:06;;;;;;;3.47;0.90;;;6.30;70.30;;;;;;6218470;23;20004;-75
2021/03/16 03:45:34;;;;;;;3.77;1.30;;;6.30;70.70;;;;;;6220537;23;20027;-75
2021/03/16 03:48:03;;;;;;;4.70;1.17;;;6.30;70.60;;;;;;6220119;23;20023;-75
2021/03/16 03:50:30;;;;;;;3.90;1.00;;;6.30;70.90;;;;;;6219530;23;20023;-75
2021/03/16 03:52:58;;;;;;;2.50;0.87;;;6.20;70.00;;;;;;6218896;23;20004;-75
2021/03/16 03:55:25;;;;;;;3.27;1.13;;;6.20;70.10;;;;;;6220236;23;20000;-75
2021/03/16 03:57:53;;;;;;;5.97;1.30;;;6.20;70.50;;;;;;6245421;23;20004;-75
2021/03/16 04:00:20;;;;;;;3.37;1.23;;;6.10;70.70;;;;;;6219867;23;20318;-75
2021/03/16 04:02:46;;;;;;;6.53;1.30;;;6.10;71.70;;;;;;6245444;23;19996;-75
2021/03/16 04:05:12;;;;;;;3.23;1.23;;;6.20;71.80;;;;;;6219096;23;20011;-75
2021/03/16 04:07:39;;;;;;;3.20;1.10;;;6.20;71.70;;;;;;6218955;23;20011;-75
2021/03/16 04:10:08;;;;;;;3.70;1.43;;;6.20;72.00;;;;;;6218434;23;20028;-75
2021/03/16 04:12:35;;;;;;;4.47;1.33;;;6.20;72.10;;;;;;6245272;23;20000;-75
2021/03/16 04:15:03;;;;;;;7.33;1.77;;;6.20;72.10;;;;;;6218094;23;20382;-75
2021/03/16 04:17:28;;;;;;;5.13;1.40;;;6.20;72.20;;;;;;6245644;23;20015;-75
2021/03/16 04:19:55;;;;;;;6.37;1.30;;;6.20;72.10;;;;;;6218608;23;20087;-75
2021/03/16 04:22:22;;;;;;;3.90;1.37;;;6.20;72.10;;;;;;6245875;23;20485;-75
2021/03/16 04:24:55;;;;;;;6.50;1.43;;;6.20;72.00;;;;;;6245115;23;20028;-75
2021/03/16 04:27:20;;;;;;;3.73;1.20;;;6.20;71.80;;;;;;6219481;23;20012;-75
2021/03/16 04:29:46;;;;;;;7.87;1.43;;;6.20;72.30;;;;;;6245270;23;20328;-75
2021/03/16 04:32:12;;;;;;;5.03;1.20;;;6.20;72.50;;;;;;6219410;23;20389;-75
2021/03/16 04:34:38;;;;;;;6.47;1.50;;;6.20;72.50;;;;;;6219228;23;20087;-75
2021/03/16 04:37:03;;;;;;;4.20;1.30;;;6.20;72.50;;;;;;6212950;23;20012;-75
2021/03/16 04:39:29;;;;;;;7.63;1.33;;;6.20;72.70;;;;;;6214006;23;20012;-75
2021/03/16 04:41:55;;;;;;;4.03;1.30;;;6.20;72.80;;;;;;6213521;23;20000;-75
2021/03/16 04:44:20;;;;;;;6.33;1.47;;;6.10;72.90;;;;;;6215681;23;20005;-75
2021/03/16 04:46:46;;;;;;;2.93;1.13;;;6.10;73.00;;;;;;6213434;23;20007;-76
2021/03/16 04:49:12;;;;;;;3.40;1.23;;;6.10;72.90;;;;;;6215611;23;20012;-76
2021/03/16 04:51:38;;;;;;;3.30;1.30;;;6.20;73.00;;;;;;6214309;23;20000;-76
2021/03/16 04:54:04;;;;;;;5.47;1.40;;;6.20;72.90;;;;;;6214947;23;20004;-76
2021/03/16 04:56:29;;;;;;;4.40;1.10;;;6.10;73.00;;;;;;6214024;23;20027;-76
2021/03/16 04:58:55;;;;;;;3.83;1.20;;;6.10;73.10;;;;;;6213532;23;20087;-77
2021/03/16 05:01:21;;;;;;;5.60;1.40;;;6.10;73.30;;;;;;6214690;23;20420;-77
2021/03/16 05:03:46;;;;;;;5.40;1.20;;;6.00;73.20;;;;;;6215425;23;20428;-77
2021/03/16 05:06:12;;;;;;;4.13;1.43;;;6.10;73.40;;;;;;6216176;23;19993;-76
2021/03/16 05:08:37;;;;;;;4.13;1.10;;;6.10;73.40;;;;;;6215664;23;20004;-77
2021/03/16 05:11:03;;;;;;;4.67;1.20;;;6.00;73.50;;;;;;6215049;23;20001;-75
2021/03/16 05:13:29;;;;;;;3.53;1.43;;;6.00;73.30;;;;;;6213470;23;20004;-76
2021/03/16 05:15:54;;;;;;;5.03;1.40;;;6.00;73.20;;;;;;6212845;23;20000;-76
2021/03/16 05:18:20;;;;;;;3.97;1.30;;;6.00;73.30;;;;;;6212843;23;20031;-76
2021/03/16 05:20:46;;;;;;;6.30;1.43;;;6.00;73.50;;;;;;6214485;23;20057;-76
2021/03/16 05:23:12;;;;;;;6.30;1.37;;;6.00;73.40;;;;;;6213856;23;20028;-76
2021/03/16 05:25:38;;;;;;;3.43;1.00;;;6.00;73.20;;;;;;6215489;23;20447;-76
2021/03/16 05:28:04;;;;;;;3.73;1.00;;;6.00;73.40;;;;;;6214800;23;20435;-76
2021/03/16 05:30:29;;;;;;;5.60;1.10;;;6.00;73.00;;;;;;6216685;23;20370;-75
2021/03/16 05:32:56;;;;;;;5.13;1.83;;;6.00;72.80;;;;;;6216039;23;20001;-76
2021/03/16 05:35:23;;;;;;;7.97;1.30;;;6.00;72.60;;;;;;6217344;23;20000;-77
2021/03/16 05:37:49;;;;;;;4.13;1.20;;;6.00;72.70;;;;;;6220456;23;20012;-77
2021/03/16 05:40:15;;;;;;;2.20;1.00;;;6.10;72.70;;;;;;6221435;23;20010;-76
2021/03/16 05:42:41;;;;;;;10.03;1.57;;;5.90;73.00;;;;;;6221402;23;20383;-76
2021/03/16 05:45:07;;;;;;;3.97;1.20;;;6.00;73.20;;;;;;6220363;23;20450;-76
2021/03/16 05:47:33;;;;;;;6.27;1.37;;;5.90;73.40;;;;;;6247901;23;20047;-78
2021/03/16 05:50:01;;;;;;;7.00;1.40;;;6.00;73.20;;;;;;6247318;23;20366;-78
2021/03/16 05:52:26;;;;;;;4.23;0.87;;;5.90;73.50;;;;;;6221269;23;20486;-78
2021/03/16 05:54:56;;;;;;;2.07;0.73;;;5.90;73.30;;;;;;6220129;23;20039;-77
2021/03/16 05:57:21;;;;;;;3.97;1.00;;;6.00;73.00;;;;;;6246396;23;20062;-78
2021/03/16 05:59:51;;;;;;;3.73;1.10;;;6.00;72.80;;;;;;6219432;23;20000;-78
2021/03/16 06:02:16;;;;;;;7.83;1.40;;;6.10;72.70;;;;;;6221055;23;20004;-78
2021/03/16 06:04:43;;;;;;;6.93;1.37;;;6.00;73.10;;;;;;6247853;23;20486;-77
2021/03/16 06:07:12;;;;;;;7.20;1.20;;;6.00;73.00;;;;;;6220386;23;20335;-78
2021/03/16 06:09:38;;;;;;;4.30;1.40;;;6.10;72.70;;;;;;6247273;23;20000;-75
2021/03/16 06:12:04;;;;;;;4.73;1.10;;;6.10;72.50;;;;;;6220348;23;20510;-75
2021/03/16 06:14:34;;;;;;;5.37;1.20;;;6.10;72.50;;;;;;6220364;23;20001;-77
2021/03/16 06:17:00;;;;;;;7.47;1.37;;;6.20;72.20;;;;;;6246861;23;20009;-78
2021/03/16 06:19:39;;;;;;;3.90;1.10;;;6.20;72.30;;;;;;6220691;23;20015;-78
2021/03/16 06:22:07;;;;;;;8.27;1.67;;;6.10;72.10;;;;;;6220644;23;20004;-77
2021/03/16 06:24:42;;;;;;;6.13;1.30;;;6.20;71.90;;;;;;6247557;23;20000;-76
2021/03/16 06:27:19;;;;;;;3.83;1.30;;;6.20;71.80;;;;;;6220626;23;20004;-77
2021/03/16 06:29:46;;;;;;;5.33;1.13;;;6.20;71.90;;;;;;6220595;23;20111;-76
2021/03/16 06:32:15;;;;;;;9.30;1.60;;;6.20;71.60;;;;;;6219924;23;20054;-77
2021/03/16 06:34:40;;;;;;;6.63;1.33;;;6.20;71.90;;;;;;6246631;23;20011;-77
2021/03/16 06:37:06;;;;;;;3.83;1.13;;;6.10;71.60;;;;;;6246557;23;20320;-75
2021/03/16 06:39:31;;;;;;;4.77;1.10;;;6.10;71.60;;;;;;6219959;23;20423;-75
2021/03/16 06:41:57;;;;;;;4.63;1.13;;;6.10;71.60;;;;;;6219463;23;20084;-75
2021/03/16 06:44:24;;;;;;;6.37;1.07;;;6.10;71.80;;;;;;6246728;23;20006;-76
2021/03/16 06:46:57;;;;;;;4.73;1.10;;;6.10;71.50;;;;;;6245906;23;20062;-76
2021/03/16 06:49:24;;;;;;;3.73;0.97;;;6.20;71.10;;;;;;6220055;23;20085;-76
2021/03/16 06:51:51;;;;;;;4.90;1.20;;;6.30;71.00;;;;;;6219393;23;20273;-77
2021/03/16 06:54:19;;;;;;;5.57;0.90;;;6.30;71.40;;;;;;6220411;23;20006;-76
2021/03/16 06:56:55;;;;;;;5.10;1.20;;;6.30;71.10;;;;;;6246486;23;20061;-76
2021/03/16 06:59:29;;;;;;;7.43;1.10;;;6.30;70.80;;;;;;6246397;23;20023;-76
2021/03/16 07:01:56;;;;;;;5.20;1.37;;;6.30;71.20;;;;;;6219119;23;19996;-76
2021/03/16 07:04:26;;;;;;;7.50;1.27;;;6.20;71.70;;;;;;6246817;23;20000;-76
2021/03/16 07:06:52;;;;;;;5.60;1.20;;;6.20;71.60;;;;;;6245823;23;20036;-76
2021/03/16 07:09:19;;;;;;;6.50;1.07;;;6.30;71.50;;;;;;6219865;23;20004;-76
2021/03/16 07:11:50;;;;;;;3.93;0.80;;;6.40;71.20;;;;;;6219786;23;20007;-76
2021/03/16 07:14:20;;;;;;;5.53;1.00;;;6.40;71.20;;;;;;6219967;23;20004;-76
2021/03/16 07:16:47;;;;;;;10.43;1.87;;;6.40;71.50;;;;;;6219481;23;20019;-75
2021/03/16 07:19:15;;;;;;;8.03;1.53;;;6.40;72.30;;;;;;6245561;23;20008;-76
2021/03/16 07:21:52;;;;;;;5.90;1.20;;;6.40;72.20;;;;;;6219487;23;20012;-76
2021/03/16 07:24:27;;;;;;;4.43;1.30;;;6.40;71.80;;;;;;6219450;23;20000;-76
2021/03/16 07:26:55;;;;;;;4.37;1.40;;;6.40;71.60;;;;;;6218690;23;20061;-77
2021/03/16 07:29:21;;;;;;;5.07;1.33;;;6.40;71.50;;;;;;6218409;23;20004;-76
2021/03/16 07:31:49;;;;;;;8.47;1.67;;;6.50;71.80;;;;;;6219921;23;20010;-75
2021/03/16 07:34:18;;;;;;;5.13;1.13;;;6.40;71.60;;;;;;6217654;23;20004;-76
2021/03/16 07:36:45;;;;;;;6.93;1.63;;;6.40;71.50;;;;;;6246480;23;20012;-76
2021/03/16 07:39:15;;;;;;;6.10;1.17;;;6.40;71.60;;;;;;6245289;23;20088;-76
2021/03/16 07:41:41;;;;;;;9.93;1.40;;;6.40;71.50;;;;;;6219189;23;20012;-77
2021/03/16 07:44:12;;;;;;;5.00;1.30;;;6.50;71.80;;;;;;6218293;23;20331;-74
2021/03/16 07:46:51;;;;;;;6.47;1.50;;;6.50;71.40;;;;;;6245909;23;19996;-75
2021/03/16 07:49:54;;;;;;;9.57;1.77;;;6.50;71.40;;;;;;6218290;23;20039;-76
2021/03/16 07:52:26;;;;;;;3.73;1.20;;;6.50;71.60;;;;;;6211310;23;20490;-78
2021/03/16 07:54:54;;;;;;;;;;;6.60;71.30;;;;;;6220024;23;20028;-78
2021/03/16 07:57:29;;;;;;;7.70;1.20;;;6.60;71.20;;;;;;6218657;23;19919;-79
2021/03/16 08:00:05;;;;;;;8.67;1.33;;;6.60;70.30;;;;;;6218358;23;20004;-75
2021/03/16 08:02:33;;;;;;;10.43;1.60;;;6.70;70.40;;;;;;6245051;23;20028;-76
2021/03/16 08:04:58;;;;;;;5.63;1.13;;;6.70;70.40;;;;;;6217527;23;19997;-76
2021/03/16 08:07:28;;;;;;;6.23;1.10;;;6.80;70.60;;;;;;6218822;23;20004;-76
2021/03/16 08:09:57;;;;;;;4.80;1.37;;;6.80;69.80;;;;;;6217917;23;20429;-77
2021/03/16 08:12:27;;;;;;;7.67;1.30;;;6.80;70.40;;;;;;6218701;23;20000;-78
2021/03/16 08:14:54;;;;;;;2.93;1.17;;;6.80;69.60;;;;;;6246185;23;20005;-79
2021/03/16 08:17:30;;;;;;;5.93;1.73;;;6.80;70.40;;;;;;6219407;23;20070;-79
2021/03/16 08:19:56;;;;;;;6.47;1.13;;;6.90;70.50;;;;;;6218957;23;19996;-79
2021/03/16 08:22:23;;;;;;;5.93;1.73;;;6.90;69.30;;;;;;6219355;23;20055;-77
2021/03/16 08:25:02;;;;;;;8.47;1.63;;;6.90;69.50;;;;;;6219616;23;20075;-80
2021/03/16 08:27:29;;;;;;;3.40;1.20;;;6.90;68.90;;;;;;6220000;23;20011;-78
2021/03/16 08:29:55;;;;;;;6.57;1.30;;;7.00;68.40;;;;;;6218862;23;20007;-85
2021/03/16 08:32:22;;;;;;;5.10;1.40;;;7.10;68.60;;;;;;6219698;23;20326;-78
2021/03/16 08:34:49;;;;;;;5.87;1.70;;;7.10;68.80;;;;;;6245472;23;20000;-78
2021/03/16 08:37:36;;;;;;;8.77;1.90;;;7.10;68.30;;;;;;6213380;23;20017;-78
2021/03/16 08:40:04;;;;;;;5.20;0.90;;;7.10;68.20;;;;;;6213293;23;20007;-78
2021/03/16 08:42:30;;;;;;;5.10;1.20;;;7.20;68.20;;;;;;6215697;23;20051;-78
2021/03/16 08:44:56;;;;;;;8.93;1.47;;;7.20;68.30;;;;;;6213543;23;20005;-79
2021/03/16 08:47:24;;;;;;;5.60;1.30;;;7.20;68.60;;;;;;6214735;23;20080;-78
2021/03/16 08:49:52;;;;;;;8.73;1.47;;;7.30;68.40;;;;;;6215380;23;20000;-77
2021/03/16 08:52:29;;;;;;;5.83;1.53;;;7.40;68.10;;;;;;6212529;23;20309;-77
2021/03/16 08:54:57;;;;;;;7.20;1.03;;;7.50;67.60;;;;;;6213724;23;19997;-84
2021/03/16 08:57:29;;;;;;;4.53;1.20;;;7.50;66.50;;;;;;6213919;23;20009;-80
2021/03/16 08:59:57;;;;;;;4.88;1.15;;;7.50;66.30;;;;;;6215303;23;20001;-85
2021/03/16 09:02:33;;;;;;;5.30;1.10;;;7.60;66.00;;;;;;6215745;23;20022;-78
2021/03/16 09:04:59;;;;;;;6.53;1.20;;;7.60;65.30;;;;;;6215085;23;20004;-77
2021/03/16 09:07:27;;;;;;;7.73;1.10;;;7.60;65.20;;;;;;6215654;23;20008;-83
2021/03/16 09:10:06;;;;;;;6.40;1.00;;;7.70;65.40;;;;;;6217317;23;20019;-79
2021/03/16 09:12:32;;;;;;;2.60;1.27;;;7.80;65.10;;;;;;6215279;23;19996;-77
2021/03/16 09:15:10;;;;;;;7.53;1.80;;;7.80;64.20;;;;;;6215411;23;20051;-80
2021/03/16 09:17:36;;;;;;;6.50;0.90;;;7.80;63.60;;;;;;6216123;23;20056;-77
2021/03/16 09:20:19;;;;;;;4.30;1.27;;;7.80;63.90;;;;;;6214652;23;20027;-79
2021/03/16 09:22:46;;;;;;;;;;;7.80;63.80;;;;;;6215375;23;20000;-78
2021/03/16 09:25:12;;;;;;;12.63;4.50;;;7.80;63.00;;;;;;6214235;23;19900;-76
2021/03/16 09:27:39;;;;;;;9.23;1.57;;;7.80;63.00;;;;;;6214904;23;20083;-75
2021/03/16 09:30:08;;;;;;;7.77;1.30;;;7.80;63.10;;;;;;6215531;23;20003;-75
2021/03/16 09:32:36;;;;;;;4.00;0.80;;;7.80;63.20;;;;;;6215089;23;20428;-75
2021/03/16 09:35:02;;;;;;;5.63;1.03;;;7.80;63.60;;;;;;6214472;23;20035;-76
2021/03/16 09:37:27;;;;;;;5.77;1.20;;;7.70;62.70;;;;;;6214742;23;20020;-76
2021/03/16 09:39:57;;;;;;;1.80;0.77;;;7.60;63.10;;;;;;6216164;23;20000;-76
2021/03/16 09:42:56;;;;;;;8.03;1.13;;;7.60;63.30;;;;;;6215163;23;20497;-77
2021/03/16 09:45:25;;;;;;;4.23;1.23;;;7.50;62.80;;;;;;6166811;23;20080;-76
2021/03/16 09:47:51;;;;;;;3.70;0.93;;;7.50;63.20;;;;;;6214877;23;20371;-76
2021/03/16 09:50:23;;;;;;;7.03;1.30;;;7.50;62.50;;;;;;6215900;23;20000;-76
2021/03/16 09:53:02;;;;;;;4.63;0.87;;;7.50;62.10;;;;;;6214459;23;19992;-77
2021/03/16 09:55:28;;;;;;;6.70;1.00;;;7.50;61.70;;;;;;6215804;23;20027;-75
2021/03/16 09:57:54;;;;;;;6.03;1.20;;;7.50;61.80;;;;;;6215700;23;20056;-77
2021/03/16 10:00:22;;;;;;;8.87;1.20;;;7.50;62.50;;;;;;6215706;23;20050;-77
2021/03/16 10:02:48;;;;;;;5.10;1.00;;;7.60;62.30;;;;;;6215974;23;20001;-76
2021/03/16 10:05:16;;;;;;;6.37;1.00;;;7.60;61.60;;;;;;6213308;23;20001;-77
2021/03/16 10:07:42;;;;;;;4.27;1.13;;;7.60;61.40;;;;;;6214206;23;20008;-80
2021/03/16 10:10:14;;;;;;;7.10;0.93;;;7.70;61.70;;;;;;6213778;23;20001;-78
2021/03/16 10:12:58;;;;;;;6.25;1.05;;;7.70;62.00;;;;;;6213552;23;19997;-77
2021/03/16 10:15:44;;;;;;;7.73;0.80;;;7.70;61.90;;;;;;6215262;23;20004;-75
2021/03/16 10:18:18;;;;;;;5.27;1.10;;;7.80;61.20;;;;;;6215224;23;20259;-76
2021/03/16 10:20:45;;;;;;;2.47;0.80;;;7.90;61.80;;;;;;6215659;23;20000;-75
2021/03/16 10:23:22;;;;;;;6.13;1.30;;;7.90;61.60;;;;;;6213517;23;20004;-76
2021/03/16 10:26:00;;;;;;;3.13;0.80;;;8.00;61.10;;;;;;6213836;23;20297;-75
2021/03/16 10:28:35;;;;;;;4.10;1.37;;;8.00;60.70;;;;;;6215203;23;20140;-74
2021/03/16 10:31:20;;;;;;;4.93;1.10;;;8.00;60.20;;;;;;6213468;23;20388;-75
2021/03/16 10:33:48;;;;;;;5.17;0.90;;;8.00;59.60;;;;;;6215603;23;20000;-75
2021/03/16 10:36:14;;;;;;;2.40;1.00;;;8.00;60.30;;;;;;6213222;23;20023;-75
2021/03/16 10:38:40;;;;;;;5.60;1.00;;;8.10;59.50;;;;;;6215882;23;20036;-76
2021/03/16 10:41:06;;;;;;;2.63;0.90;;;8.20;57.50;;;;;;6214913;23;20004;-75
2021/03/16 10:43:32;;;;;;;3.27;0.60;;;8.20;57.10;;;;;;6214200;23;19997;-78
2021/03/16 10:45:59;;;;;;;3.33;0.70;;;8.30;57.20;;;;;;6212665;23;20004;-87
2021/03/16 10:48:25;;;;;;;3.70;0.90;;;8.40;56.80;;;;;;6213948;23;20325;-76
2021/03/16 10:50:51;;;;;;;4.07;1.00;;;8.50;56.40;;;;;;6213505;23;20453;-76
2021/03/16 10:53:18;;;;;;;8.00;1.20;;;8.60;55.00;;;;;;6214987;23;20001;-76
2021/03/16 10:55:44;;;;;;;3.43;0.90;;;8.70;55.50;;;;;;6215255;23;19997;-77
2021/03/16 10:58:09;;;;;;;3.38;1.10;;;8.80;54.40;;;;;;6212776;23;20013;-76
2021/03/16 11:00:36;;;;;;;2.20;0.65;;;9.00;51.70;;;;;;6213797;23;20409;-77
2021/03/16 11:03:02;;;;;;;4.60;1.90;;;9.00;50.80;;;;;;6214867;23;20000;-76
2021/03/16 11:05:28;;;;;;;7.20;2.58;;;9.00;49.70;;;;;;6213934;23;20005;-75
2021/03/16 11:07:54;;;;;;;5.38;1.20;;;9.10;49.80;;;;;;6213815;23;20340;-78
2021/03/16 11:10:19;;;;;;;3.10;0.90;;;9.20;50.50;;;;;;6214709;23;20036;-77
2021/03/16 11:12:45;;;;;;;3.13;0.80;;;9.30;49.70;;;;;;6215011;23;19993;-76
2021/03/16 11:15:11;;;;;;;4.40;0.70;;;9.40;49.70;;;;;;6213498;23;20071;-78
2021/03/16 11:17:37;;;;;;;2.85;0.88;;;9.40;50.00;;;;;;6215441;23;20031;-78
2021/03/16 11:20:04;;;;;;;3.60;1.02;;;9.40;50.10;;;;;;6212935;23;20427;-76
2021/03/16 11:22:29;;;;;;;7.28;0.73;;;9.50;49.90;;;;;;6213460;23;20297;-76
2021/03/16 11:24:55;;;;;;;4.47;0.95;;;9.40;49.80;;;;;;6213280;23;20004;-76
2021/03/16 11:27:21;;;;;;;5.22;0.95;;;9.30;49.90;;;;;;6212337;23;20019;-77
2021/03/16 11:29:46;;;;;;;2.42;0.70;;;9.30;50.30;;;;;;6214795;23;20059;-76
2021/03/16 11:32:12;;;;;;;3.65;0.95;;;9.30;51.20;;;;;;6212126;23;20420;-77
2021/03/16 11:34:38;;;;;;;2.53;0.60;;;9.20;51.20;;;;;;6212931;23;19996;-77
2021/03/16 11:37:04;;;;;;;7.15;0.70;;;9.20;51.40;;;;;;6211770;23;20021;-76
2021/03/16 11:39:29;;;;;;;3.95;0.80;;;9.30;51.80;;;;;;6212955;23;20126;-75
2021/03/16 11:41:55;;;;;;;2.35;0.75;;;9.20;51.80;;;;;;6212672;23;20458;-76
2021/03/16 11:44:20;;;;;;;4.40;1.23;;;9.10;52.30;;;;;;6212667;23;20051;-76
2021/03/16 11:46:46;;;;;;;4.80;0.77;;;9.10;52.60;;;;;;6212897;23;20012;-76
2021/03/16 11:49:12;;;;;;;5.50;1.00;;;9.10;53.00;;;;;;6214236;23;20005;-76
2021/03/16 11:51:37;;;;;;;6.97;0.90;;;9.20;52.00;;;;;;6213195;23;20084;-77
2021/03/16 11:54:03;;;;;;;3.42;1.75;;;9.20;52.00;;;;;;6212531;23;20366;-74
2021/03/16 11:56:29;;;;;;;3.33;0.68;;;9.20;51.80;;;;;;6214640;23;20000;-76
2021/03/16 11:58:54;;;;;;;4.15;0.80;;;9.20;52.00;;;;;;6214221;23;20277;-75
2021/03/16 12:01:20;;;;;;;4.00;0.70;;;9.30;52.20;;;;;;6212562;23;20066;-75
2021/03/16 12:03:46;;;;;;;4.80;0.68;;;9.30;52.10;;;;;;6212799;23;20000;-74
2021/03/16 12:06:11;;;;;;;4.32;0.60;;;9.30;52.00;;;;;;6212449;23;20005;-75
2021/03/16 12:08:37;;;;;;;3.83;0.95;;;9.40;52.00;;;;;;6212825;23;20324;-75
2021/03/16 12:11:04;;;;;;;4.93;0.95;;;9.50;51.90;;;;;;6212007;23;20016;-77
2021/03/16 12:13:30;;;;;;;8.48;0.80;;;9.50;51.30;;;;;;6213003;23;20359;-77
2021/03/16 12:15:55;;;;;;;4.60;0.75;;;9.60;51.50;;;;;;6212564;23;20004;-76
2021/03/16 12:18:21;;;;;;;3.25;0.68;;;9.60;51.70;;;;;;6212054;23;20008;-76
2021/03/16 12:20:49;;;;;;;2.72;0.82;;;9.70;51.50;;;;;;6212737;23;20074;-75
2021/03/16 12:23:15;;;;;;;3.47;0.75;;;9.70;50.60;;;;;;6213509;23;19997;-75
2021/03/16 12:25:41;;;;;;;4.50;0.93;;;9.70;49.90;;;;;;6213941;23;20011;-75
2021/03/16 12:28:07;;;;;;;4.22;0.90;;;9.70;50.40;;;;;;6212191;23;20036;-75
2021/03/16 12:30:33;;;;;;;10.10;0.80;;;9.70;50.20;;;;;;6212995;23;20004;-75
2021/03/16 12:32:58;;;;;;;3.13;0.90;;;9.70;50.20;;;;;;6213231;23;20005;-77
2021/03/16 12:35:24;;;;;;;4.07;0.70;;;9.70;49.90;;;;;;6215752;23;20437;-76
2021/03/16 12:37:49;;;;;;;4.65;0.90;;;9.50;51.10;;;;;;6214479;23;20425;-78
2021/03/16 12:40:15;;;;;;;2.58;0.57;;;9.60;50.40;;;;;;6216267;23;20001;-74
2021/03/16 12:42:41;;;;;;;2.90;0.70;;;9.50;50.80;;;;;;6214391;23;20340;-75
2021/03/16 12:45:08;;;;;;;6.90;0.80;;;9.50;50.50;;;;;;6214354;23;20004;-76
2021/03/16 12:47:34;;;;;;;3.97;1.05;;;9.40;50.70;;;;;;6216465;23;20013;-77
2021/03/16 12:50:00;;;;;;;4.13;0.90;;;9.50;51.30;;;;;;6216525;23;20035;-77
2021/03/16 12:52:26;;;;;;;3.08;0.75;;;9.60;51.30;;;;;;6214636;23;20030;-77
2021/03/16 12:54:52;;;;;;;5.72;0.65;;;9.60;51.10;;;;;;6214617;23;20012;-75
2021/03/16 12:57:18;;;;;;;3.90;1.02;;;9.50;51.10;;;;;;6213872;23;20408;-76
2021/03/16 12:59:45;;;;;;;2.75;0.65;;;9.50;51.10;;;;;;6214463;23;20087;-74
2021/03/16 13:02:11;;;;;;;3.90;0.90;;;9.60;51.80;;;;;;6215258;23;20436;-73
2021/03/16 13:04:37;;;;;;;3.35;0.70;;;9.60;51.40;;;;;;6213969;23;20001;-73